createdAt,value
2018-03-01T00:03:45.576Z,16.10
2018-03-01T00:08:29.711Z,15.47
2018-03-01T00:13:13.080Z,13.70
2018-03-01T00:17:57.194Z,15.17
2018-03-01T00:22:40.555Z,15.03
2018-03-01T00:27:23.937Z,14.77
2018-03-01T00:32:07.386Z,13.33
2018-03-01T00:36:50.808Z,13.63
2018-03-01T00:41:34.201Z,15.90
2018-03-01T00:46:17.577Z,13.17
2018-03-01T00:51:00.990Z,15.27
2018-03-01T00:55:45.143Z,15.00
2018-03-01T01:00:28.523Z,15.70
2018-03-01T01:05:12.658Z,15.07
2018-03-01T01:09:56.852Z,15.87
2018-03-01T01:14:40.207Z,16.50
2018-03-01T01:19:23.566Z,15.10
2018-03-01T01:24:06.875Z,16.10
2018-03-01T01:28:50.257Z,14.90
2018-03-01T01:33:33.610Z,16.10
2018-03-01T01:38:16.980Z,15.13
2018-03-01T01:43:00.336Z,15.60
2018-03-01T01:47:44.488Z,15.17
2018-03-01T01:52:28.587Z,15.37
2018-03-01T01:57:11.933Z,15.60
2018-03-01T02:01:55.311Z,14.77
2018-03-01T02:06:38.655Z,14.33
2018-03-01T02:11:22.803Z,17.47
2018-03-01T02:16:06.143Z,15.63
2018-03-01T02:20:49.474Z,15.43
2018-03-01T02:25:32.878Z,14.27
2018-03-01T02:30:24.638Z,15.40
2018-03-01T02:35:07.979Z,15.33
2018-03-01T02:39:51.275Z,14.63
2018-03-01T02:44:35.382Z,15.93
2018-03-01T02:49:18.716Z,17.40
2018-03-01T02:54:02.035Z,15.37
2018-03-01T02:58:45.439Z,14.77
2018-03-01T03:03:28.806Z,17.37
2018-03-01T03:08:12.200Z,14.83
2018-03-01T03:12:55.516Z,14.77
2018-03-01T03:17:38.875Z,14.53
2018-03-01T03:22:23.055Z,15.37
2018-03-01T03:27:06.688Z,16.43
2018-03-01T03:31:50.051Z,15.93
2018-03-01T03:36:33.400Z,16.03
2018-03-01T03:41:17.733Z,15.57
2018-03-01T03:46:02.593Z,15.77
2018-03-01T03:50:45.972Z,17.70
2018-03-01T03:55:30.171Z,16.00
2018-03-01T04:00:13.533Z,15.67
2018-03-01T04:04:56.874Z,15.03
2018-03-01T04:09:40.252Z,16.57
2018-03-01T04:14:23.622Z,14.63
2018-03-01T04:19:06.987Z,16.37
2018-03-01T04:23:50.337Z,17.17
2018-03-01T04:28:33.671Z,18.23
2018-03-01T04:33:17.047Z,17.90
2018-03-01T04:38:00.367Z,17.47
2018-03-01T04:42:43.725Z,17.80
2018-03-01T04:47:27.062Z,18.40
2018-03-01T04:52:10.489Z,18.43
2018-03-01T04:56:53.986Z,19.90
2018-03-01T05:01:37.623Z,19.17
2018-03-01T05:06:21.037Z,19.20
2018-03-01T05:11:04.373Z,19.03
2018-03-01T05:15:47.787Z,17.60
2018-03-01T05:20:31.152Z,19.70
2018-03-01T05:25:14.471Z,18.93
2018-03-01T05:29:57.814Z,19.57
2018-03-01T05:34:41.204Z,19.37
2018-03-01T05:39:24.823Z,18.37
2018-03-01T05:44:08.196Z,20.53
2018-03-01T05:48:56.533Z,18.73
2018-03-01T05:53:39.890Z,18.10
2018-03-01T05:58:30.502Z,18.80
2018-03-01T06:03:14.136Z,19.37
2018-03-01T06:07:57.517Z,17.97
2018-03-01T06:12:40.929Z,18.23
2018-03-01T06:17:24.349Z,20.77
2018-03-01T06:22:07.678Z,17.27
2018-03-01T06:26:51.100Z,19.40
2018-03-01T06:31:34.515Z,18.37
2018-03-01T06:36:17.881Z,19.23
2018-03-01T06:41:01.492Z,18.43
2018-03-01T06:45:45.593Z,20.17
2018-03-01T06:50:28.949Z,20.50
2018-03-01T06:55:12.309Z,19.50
2018-03-01T06:59:56.445Z,19.47
2018-03-01T07:04:39.838Z,21.73
2018-03-01T07:09:23.238Z,22.17
2018-03-01T07:14:06.555Z,19.57
2018-03-01T07:18:49.917Z,20.37
2018-03-01T07:23:33.284Z,19.93
2018-03-01T07:28:16.722Z,19.67
2018-03-01T07:33:00.952Z,22.27
2018-03-01T07:37:44.330Z,21.03
2018-03-01T07:42:27.705Z,22.00
2018-03-01T07:47:11.050Z,20.03
2018-03-01T07:51:54.399Z,22.60
2018-03-01T07:56:37.768Z,23.57
2018-03-01T08:01:21.140Z,21.50
2018-03-01T08:06:05.285Z,21.77
2018-03-01T08:10:48.667Z,21.73
2018-03-01T08:15:31.990Z,22.00
2018-03-01T08:20:16.120Z,20.60
2018-03-01T08:24:59.483Z,22.23
2018-03-01T08:29:43.683Z,22.87
2018-03-01T08:34:27.008Z,22.47
2018-03-01T08:39:10.349Z,20.67
2018-03-01T08:43:53.716Z,20.80
2018-03-01T08:48:37.079Z,20.20
2018-03-01T08:53:20.480Z,18.87
2018-03-01T08:58:03.822Z,20.53
2018-03-01T09:02:47.249Z,19.43
2018-03-01T09:07:30.574Z,20.07
2018-03-01T09:12:14.739Z,18.53
2018-03-01T09:16:58.838Z,17.23
2018-03-01T09:21:42.244Z,18.57
2018-03-01T09:26:25.922Z,19.77
2018-03-01T09:31:09.315Z,18.90
2018-03-01T09:35:53.452Z,18.87
2018-03-01T09:40:36.868Z,17.90
2018-03-01T09:45:20.298Z,17.10
2018-03-01T09:50:04.344Z,12.40
2018-03-01T09:54:47.802Z,12.63
2018-03-01T09:59:31.200Z,12.77
2018-03-01T10:04:15.272Z,12.53
2018-03-01T10:08:58.611Z,13.53
2018-03-01T10:13:42.089Z,12.30
2018-03-01T10:18:25.460Z,12.00
2018-03-01T10:23:08.817Z,12.47
2018-03-01T10:27:53.119Z,12.93
2018-03-01T10:32:36.442Z,14.33
2018-03-01T10:37:19.797Z,12.40
2018-03-01T10:42:03.213Z,13.17
2018-03-01T10:46:47.369Z,13.60
2018-03-01T10:51:30.717Z,12.60
2018-03-01T10:56:14.829Z,13.23
2018-03-01T11:00:59.942Z,11.57
2018-03-01T11:05:44.070Z,11.30
2018-03-01T11:10:27.470Z,11.53
2018-03-01T11:15:10.789Z,11.47
2018-03-01T11:19:54.907Z,11.47
2018-03-01T11:24:38.284Z,11.30
2018-03-01T11:29:22.428Z,12.53
2018-03-01T11:34:05.803Z,11.70
2018-03-01T11:38:49.139Z,11.50
2018-03-01T11:43:32.517Z,11.73
2018-03-01T11:48:15.858Z,12.40
2018-03-01T11:52:59.257Z,12.83
2018-03-01T11:57:43.351Z,13.80
2018-03-01T12:02:26.808Z,15.87
2018-03-01T12:07:10.129Z,14.03
2018-03-01T12:11:53.918Z,18.07
2018-03-01T12:16:37.258Z,15.40
2018-03-01T12:21:21.370Z,13.40
2018-03-01T12:26:04.796Z,14.50
2018-03-01T12:30:48.224Z,12.97
2018-03-01T12:35:31.695Z,13.90
2018-03-01T12:40:15.055Z,12.03
2018-03-01T12:44:58.544Z,12.00
2018-03-01T12:49:42.691Z,12.53
2018-03-01T12:54:26.006Z,12.70
2018-03-01T12:59:09.376Z,13.20
2018-03-01T13:03:52.859Z,13.33
2018-03-01T13:08:36.239Z,13.07
2018-03-01T13:13:19.612Z,11.07
2018-03-01T13:18:02.932Z,13.10
2018-03-01T13:22:46.287Z,16.13
2018-03-01T13:27:29.638Z,16.43
2018-03-01T13:32:16.323Z,16.23
2018-03-01T13:36:59.667Z,16.00
2018-03-01T13:41:42.999Z,17.40
2018-03-01T13:46:38.169Z,17.63
2018-03-01T13:51:22.388Z,16.30
2018-03-01T13:56:05.788Z,17.27
2018-03-01T14:00:49.160Z,18.67
2018-03-01T14:05:32.556Z,18.77
2018-03-01T14:10:15.922Z,17.70
2018-03-01T14:14:59.270Z,16.87
2018-03-01T14:19:51.101Z,17.80
2018-03-01T14:24:34.947Z,17.93
2018-03-01T14:29:34.135Z,17.60
2018-03-01T14:34:17.800Z,17.50
2018-03-01T14:39:01.108Z,17.83
2018-03-01T14:43:45.199Z,16.43
2018-03-01T14:48:28.632Z,16.80
2018-03-01T14:53:12.082Z,19.73
2018-03-01T14:57:55.578Z,19.13
2018-03-01T15:02:38.900Z,18.30
2018-03-01T15:07:23.212Z,19.00
2018-03-01T15:12:06.563Z,19.73
2018-03-01T15:16:49.880Z,18.67
2018-03-01T15:21:33.991Z,18.53
2018-03-01T15:26:17.296Z,19.90
2018-03-01T15:31:01.411Z,19.20
2018-03-01T15:35:44.801Z,21.53
2018-03-01T15:40:28.218Z,18.37
2018-03-01T15:45:11.571Z,18.73
2018-03-01T15:49:55.005Z,18.47
2018-03-01T15:54:39.138Z,18.87
2018-03-01T15:59:22.536Z,18.07
2018-03-01T16:04:05.939Z,17.03
2018-03-01T16:08:50.171Z,22.85
2018-03-01T16:13:36.083Z,16.77
2018-03-01T16:18:19.443Z,17.80
2018-03-01T16:23:03.560Z,16.27
2018-03-01T16:27:46.955Z,16.10
2018-03-01T16:32:30.543Z,15.60
2018-03-01T16:37:13.879Z,15.93
2018-03-01T16:41:57.251Z,16.77
2018-03-01T16:46:41.538Z,18.10
2018-03-01T16:51:25.552Z,16.30
2018-03-01T16:56:09.325Z,19.53
2018-03-01T17:00:55.322Z,17.53
2018-03-01T17:05:41.379Z,19.67
2018-03-01T17:10:29.801Z,17.47
2018-03-01T17:15:14.982Z,20.60
2018-03-01T17:20:09.219Z,20.67
2018-03-01T17:24:53.395Z,20.13
2018-03-01T17:29:38.247Z,20.37
2018-03-01T17:34:25.050Z,19.37
2018-03-01T17:39:11.571Z,19.17
2018-03-01T17:43:56.336Z,21.07
2018-03-01T17:48:41.549Z,19.37
2018-03-01T17:53:28.685Z,20.77
2018-03-01T17:58:13.134Z,20.00
2018-03-01T18:02:57.087Z,20.10
2018-03-01T18:07:43.453Z,20.20
2018-03-01T18:12:34.605Z,20.27
2018-03-01T18:17:21.473Z,19.67
2018-03-01T18:22:10.723Z,19.17
2018-03-01T18:27:00.386Z,21.30
2018-03-01T18:31:45.026Z,19.23
2018-03-01T18:36:29.150Z,20.77
2018-03-01T18:41:12.845Z,20.77
2018-03-01T18:45:56.596Z,19.87
2018-03-01T18:50:40.396Z,20.07
2018-03-01T18:55:23.904Z,20.03
2018-03-01T19:00:10.938Z,21.70
2018-03-01T19:04:54.342Z,20.70
2018-03-01T19:09:37.740Z,20.87
2018-03-01T19:14:21.920Z,21.17
2018-03-01T19:19:05.285Z,20.90
2018-03-01T19:23:48.623Z,18.90
2018-03-01T19:28:31.997Z,21.73
2018-03-01T19:33:16.116Z,20.83
2018-03-01T19:37:59.512Z,22.30
2018-03-01T19:42:42.877Z,21.97
2018-03-01T19:47:26.196Z,22.67
2018-03-01T19:52:09.561Z,21.37
2018-03-01T19:56:52.911Z,21.67
2018-03-01T20:01:36.252Z,22.10
2018-03-01T20:06:19.608Z,21.87
2018-03-01T20:11:02.905Z,24.23
2018-03-01T20:15:46.784Z,22.70
2018-03-01T20:20:30.147Z,22.63
2018-03-01T20:25:13.610Z,23.70
2018-03-01T20:29:56.960Z,21.63
2018-03-01T20:34:40.394Z,24.13
2018-03-01T20:39:24.537Z,21.73
2018-03-01T20:44:07.866Z,23.10
2018-03-01T20:48:51.195Z,22.43
2018-03-01T20:53:34.566Z,23.33
2018-03-01T20:58:17.860Z,21.10
2018-03-01T21:03:01.228Z,22.43
2018-03-01T21:07:44.586Z,22.37
2018-03-01T21:12:27.965Z,23.70
2018-03-01T21:17:12.108Z,22.93
2018-03-01T21:21:56.216Z,23.90
2018-03-01T21:26:39.611Z,24.20
2018-03-01T21:31:22.971Z,23.60
2018-03-01T21:36:06.331Z,22.07
2018-03-01T21:40:49.705Z,21.83
2018-03-01T21:45:33.075Z,20.87
2018-03-01T21:50:16.421Z,23.60
2018-03-01T21:55:00.532Z,24.20
2018-03-01T21:59:43.917Z,24.73
2018-03-01T22:04:28.071Z,23.53
2018-03-01T22:09:12.439Z,23.03
2018-03-01T22:13:56.527Z,26.63
2018-03-01T22:18:39.920Z,26.83
2018-03-01T22:23:23.273Z,23.70
2018-03-01T22:28:06.682Z,25.40
2018-03-01T22:32:50.006Z,22.50
2018-03-01T22:37:33.394Z,24.77
2018-03-01T22:42:17.526Z,23.77
2018-03-01T22:47:00.969Z,23.30
2018-03-01T22:51:44.346Z,24.07
2018-03-01T22:56:27.727Z,26.90
2018-03-01T23:01:11.174Z,23.97
2018-03-01T23:05:54.589Z,28.70
2018-03-01T23:10:38.209Z,25.47
2018-03-01T23:15:22.376Z,23.50
2018-03-01T23:20:06.560Z,23.97
2018-03-01T23:24:49.991Z,24.53
2018-03-01T23:29:34.142Z,21.37
2018-03-01T23:34:18.295Z,23.80
2018-03-01T23:39:01.636Z,25.03
2018-03-01T23:43:45.802Z,24.83
2018-03-01T23:48:29.994Z,23.13
2018-03-01T23:53:13.369Z,25.37
2018-03-01T23:57:56.719Z,23.33
